Time;durP1;ratioP1;P1;durP2;ratioP2;P2;SDS_P1;SDS_P2;PMS_P1;PMS_P2;Temp;Humidity;BMP_temperature;BMP_pressure;BME280_temperature;BME280_humidity;BME280_pressure;Samples;Min_cycle;Max_cycle;Signal;HPM_P1;HPM_P2
2023/09/09 00:01:25;;;;;;;;;;;;;;;6.14;100.00;99705.00;5060658;28;20375;-93
2023/09/09 00:03:50;;;;;;;;;;;;;;;6.18;100.00;99706.66;5061943;28;19921;-91
2023/09/09 00:06:15;;;;;;;;;;;;;;;6.18;100.00;99709.28;5066606;28;19928;-87
2023/09/09 00:08:41;;;;;;;;;;;;;;;6.12;100.00;99712.06;5063574;28;20253;-88
2023/09/09 00:11:06;;;;;;;;;;;;;;;6.13;100.00;99708.53;5063563;28;19928;-88
2023/09/09 00:13:32;;;;;;;;;;;;;;;6.14;100.00;99711.13;5060816;28;19925;-88
2023/09/09 00:16:00;;;;;;;;;;;;;;;6.23;100.00;99703.91;5062273;28;20011;-91
2023/09/09 00:18:26;;;;;;;;;;;;;;;6.20;100.00;99707.47;5056135;28;19921;-92
2023/09/09 00:20:51;;;;;;;;;;;;;;;6.24;100.00;99703.88;5062699;28;19925;-91
2023/09/09 00:23:17;;;;;;;;;;;;;;;6.14;100.00;99705.00;5063504;28;19920;-88
2023/09/09 00:25:42;;;;;;;;;;;;;;;6.12;100.00;99706.81;5061578;28;19960;-90
2023/09/09 00:28:12;;;;;;;;;;;;;;;6.13;100.00;99713.81;5062277;28;20338;-90
2023/09/09 00:30:37;;;;;;;;;;;;;;;6.19;100.00;99705.75;5061998;28;19917;-93
2023/09/09 00:33:03;;;;;;;;;;;;;;;6.04;100.00;99700.88;5062550;28;19923;-89
2023/09/09 00:35:29;;;;;;;;;;;;;;;5.96;100.00;99694.03;5062382;28;19993;-87
2023/09/09 00:37:54;;;;;;;;;;;;;;;5.99;100.00;99693.97;5061299;28;20629;-86
2023/09/09 00:40:20;;;;;;;;;;;;;;;5.85;100.00;99695.19;5065490;28;19924;-90
2023/09/09 00:42:45;;;;;;;;;;;;;;;5.87;100.00;99701.25;5061750;28;20364;-88
2023/09/09 00:45:10;;;;;;;;;;;;;;;5.96;100.00;99694.03;5063980;28;20638;-87
2023/09/09 00:47:36;;;;;;;;;;;;;;;5.78;100.00;99692.72;5075136;28;19920;-90
2023/09/09 00:50:22;;;;;;;;;;;;;;;5.82;100.00;99693.47;5086189;28;19925;-88
2023/09/09 00:52:47;;;;;;;;;;;;;;;5.85;100.00;99689.94;5082592;28;19916;-92
2023/09/09 00:55:12;;;;;;;;;;;;;;;5.75;100.00;99687.53;5083719;28;20028;-87
2023/09/09 00:57:38;;;;;;;;;;;;;;;5.70;100.00;99693.81;5081341;28;19920;-88
2023/09/09 05:21:40;;;;;;;;;;;;;;;4.90;100.00;99725.38;5243611;22;19926;-86
2023/09/09 05:24:06;;;;;;;;;;;;;;;4.91;100.00;99725.34;4993128;28;19922;-88
2023/09/09 05:26:33;;;;;;;;;;;;;;;4.99;100.00;99732.16;4993355;28;20855;-88
2023/09/09 05:29:01;;;;;;;;;;;;;;;5.09;100.00;99733.72;4992404;28;19922;-89
2023/09/09 05:31:26;;;;;;;;;;;;;;;4.99;100.00;99732.16;4991634;28;19917;-89
2023/09/09 05:33:51;;;;;;;;;;;;;;;4.96;100.00;99733.09;4991503;28;20431;-89
2023/09/09 05:36:19;;;;;;;;;;;;;;;4.94;100.00;99740.13;4990124;28;20368;-89
2023/09/09 05:38:45;;;;;;;;;;;;;;;4.99;100.00;99737.44;4991741;28;20324;-89
2023/09/09 05:41:10;;;;;;;;;;;;;;;4.99;100.00;99737.44;4991600;28;19960;-89
2023/09/09 05:43:35;;;;;;;;;;;;;;;5.08;100.00;99734.63;4992801;28;19917;-89
2023/09/09 05:46:01;;;;;;;;;;;;;;;4.99;100.00;99738.28;4991437;28;19965;-89
2023/09/09 05:48:26;;;;;;;;;;;;;;;4.97;100.00;99733.97;4991525;28;19925;-89
2023/09/09 05:50:55;;;;;;;;;;;;;;;4.94;100.00;99739.28;4991547;28;19922;-89
2023/09/09 05:53:20;;;;;;;;;;;;;;;4.98;100.00;99738.31;5007045;28;20364;-89
2023/09/09 05:55:45;;;;;;;;;;;;;;;4.96;100.00;99740.13;4992656;28;19917;-83
2023/09/09 05:58:10;;;;;;;;;;;;;;;5.03;100.00;99744.34;4975135;28;19922;-89
2023/09/09 06:00:36;;;;;;;;;;;;;;;5.06;100.00;99745.16;4992768;28;20303;-88
2023/09/09 06:03:02;;;;;;;;;;;;;;;5.06;100.00;99745.16;4992722;28;19922;-89
2023/09/09 06:05:30;;;;;;;;;;;;;;;5.10;100.00;99745.94;4991253;28;20352;-88
2023/09/09 06:07:56;;;;;;;;;;;;;;;5.07;100.00;99746.00;4992723;28;20373;-88
2023/09/09 06:10:21;;;;;;;;;;;;;;;5.15;100.00;99754.59;4975352;28;20056;-88
2023/09/09 06:12:47;;;;;;;;;;;;;;;5.16;100.00;99751.06;4992570;28;19997;-89
2023/09/09 06:15:12;;;;;;;;;;;;;;;5.12;100.00;99753.78;4991176;28;20025;-89
2023/09/09 06:17:39;;;;;;;;;;;;;;;5.08;100.00;99753.00;4992394;28;20086;-90
2023/09/09 06:20:05;;;;;;;;;;;;;;;5.12;100.00;99756.41;4991206;28;19933;-89
2023/09/09 06:22:34;;;;;;;;;;;;;;;5.03;100.00;99758.34;5006343;28;19921;-88
2023/09/09 06:25:00;;;;;;;;;;;;;;;5.01;100.00;99761.88;5013524;28;19917;-89
2023/09/09 06:27:25;;;;;;;;;;;;;;;5.04;100.00;99761.81;5033334;28;19927;-87
2023/09/09 06:29:50;;;;;;;;;;;;;;;5.07;100.00;99767.91;5035791;28;19921;-88
2023/09/09 06:32:15;;;;;;;;;;;;;;;4.99;100.00;99763.69;5035801;28;19925;-89
2023/09/09 06:34:41;;;;;;;;;;;;;;;5.04;100.00;99772.31;5016521;28;19964;-90
2023/09/09 06:37:06;;;;;;;;;;;;;;;5.09;100.00;99771.34;5050891;28;20398;-88
2023/09/09 06:39:31;;;;;;;;;;;;;;;5.10;100.00;99766.97;5017934;28;19923;-87
2023/09/09 06:41:56;;;;;;;;;;;;;;;5.04;100.00;99764.44;5035345;28;19967;-89
2023/09/09 06:44:22;;;;;;;;;;;;;;;5.04;100.00;99774.94;5035379;28;20011;-86
2023/09/09 06:46:47;;;;;;;;;;;;;;;5.06;100.00;99770.56;5017620;28;19925;-88
2023/09/09 06:49:12;;;;;;;;;;;;;;;5.04;100.00;99773.22;5017565;28;19917;-87
2023/09/09 06:51:38;;;;;;;;;;;;;;;5.05;100.00;99774.94;5016205;28;19925;-89
2023/09/09 06:54:03;;;;;;;;;;;;;;;5.08;100.00;99774.00;5017479;28;19944;-87
2023/09/09 06:56:28;;;;;;;;;;;;;;;5.06;100.00;99783.69;5017270;28;20007;-88
2023/09/09 06:58:53;;;;;;;;;;;;;;;5.16;100.00;99779.97;5017361;28;19917;-88
2023/09/09 07:01:19;;;;;;;;;;;;;;;5.16;100.00;99776.47;5035038;28;19928;-90
2023/09/09 07:03:44;;;;;;;;;;;;;;;5.12;100.00;99783.53;5017306;28;19928;-85
2023/09/09 07:06:09;;;;;;;;;;;;;;;5.17;100.00;99788.69;5033683;28;19921;-87
2023/09/09 07:08:39;;;;;;;;;;;;;;;5.16;100.00;99781.72;5017394;28;20360;-87
2023/09/09 07:11:04;;;;;;;;;;;;;;;5.13;100.00;99787.91;5034956;28;20063;-87
2023/09/09 07:13:30;;;;;;;;;;;;;;;5.11;100.00;99784.47;5050359;28;20008;-87
2023/09/09 07:15:55;;;;;;;;;;;;;;;5.17;100.00;99780.81;5017150;28;19988;-88
2023/09/09 07:38:16;;;;;;;;;;;;;;;5.00;100.00;99775.94;5867208;22;19932;-88
2023/09/09 07:40:41;;;;;;;;;;;;;;;5.04;100.00;99778.47;5074388;28;19947;-89
2023/09/09 07:43:07;;;;;;;;;;;;;;;5.07;100.00;99782.78;5075722;28;19924;-90
2023/09/09 07:45:32;;;;;;;;;;;;;;;5.03;100.00;99784.59;5054991;28;20010;-85
2023/09/09 07:47:58;;;;;;;;;;;;;;;5.03;100.00;99786.38;5073290;28;19920;-85
2023/09/09 07:50:23;;;;;;;;;;;;;;;5.04;100.00;99782.84;5056617;28;19960;-84
2023/09/09 07:52:48;;;;;;;;;;;;;;;5.05;100.00;99789.81;5079060;28;20286;-84
2023/09/09 07:55:13;;;;;;;;;;;;;;;5.09;100.00;99788.88;5054833;28;19939;-84
2023/09/09 07:57:39;;;;;;;;;;;;;;;5.07;100.00;99788.91;5074910;28;19964;-90
2023/09/09 08:00:07;;;;;;;;;;;;;;;5.06;100.00;99789.78;5055176;28;20260;-93
2023/09/09 08:02:32;;;;;;;;;;;;;;;5.13;100.00;99782.66;5054750;28;19963;-88
2023/09/09 08:04:58;;;;;;;;;;;;;;;5.12;100.00;99788.78;5055394;28;20375;-88
2023/09/09 08:07:23;;;;;;;;;;;;;;;5.20;100.00;99792.16;5072506;28;19920;-84
2023/09/09 08:09:51;;;;;;;;;;;;;;;5.14;100.00;99787.03;5055729;28;19917;-88
2023/09/09 08:12:16;;;;;;;;;;;;;;;5.09;100.00;99787.13;5055710;28;20052;-91
2023/09/09 08:14:44;;;;;;;;;;;;;;;5.16;100.00;99793.09;5076243;28;19942;-85
2023/09/09 08:17:09;;;;;;;;;;;;;;;5.17;100.00;99794.84;5075475;28;20019;-90
2023/09/09 08:19:35;;;;;;;;;;;;;;;5.15;100.00;99796.63;5073970;28;20000;-88
2023/09/09 08:22:00;;;;;;;;;;;;;;;5.14;100.00;99797.53;5071993;28;19917;-91
2023/09/09 08:24:25;;;;;;;;;;;;;;;5.24;100.00;99798.19;5073611;28;19975;-93
2023/09/09 08:26:51;;;;;;;;;;;;;;;5.27;100.00;99799.00;5041043;22;20398;-90
2023/09/09 08:29:16;;;;;;;;;;;;;;;5.28;100.00;99792.84;5049142;28;19917;-90
2023/09/09 08:31:41;;;;;;;;;;;;;;;5.31;100.00;99796.31;5015867;28;19917;-88
2023/09/09 08:34:06;;;;;;;;;;;;;;;5.36;100.00;99794.44;5033960;28;19963;-91
2023/09/09 08:36:32;;;;;;;;;;;;;;;5.31;100.00;99798.94;5033858;28;19959;-89
2023/09/09 08:38:57;;;;;;;;;;;;;;;5.44;100.00;99792.50;5014365;28;19918;-93
2023/09/09 08:41:30;;;;;;;;;;;;;;;5.40;100.00;99788.22;5033745;28;19932;-88
2023/09/09 08:44:00;;;;;;;;;;;;;;;5.36;100.00;99790.06;5033795;28;20372;-87
2023/09/09 08:46:25;;;;;;;;;;;;;;;5.41;100.00;99788.19;5034610;28;20272;-86
2023/09/09 08:48:51;;;;;;;;;;;;;;;5.44;100.00;99787.25;5016488;28;19918;-86
2023/09/09 08:51:27;;;;;;;;;;;;;;;5.39;100.00;99795.25;5032975;28;19939;-91
2023/09/09 08:53:55;;;;;;;;;;;;;;;5.30;100.00;99791.94;5031181;28;19913;-85
2023/09/09 08:56:21;;;;;;;;;;;;;;;5.30;100.00;99789.31;5033122;28;20016;-86
2023/09/09 08:58:46;;;;;;;;;;;;;;;5.32;100.00;99792.78;5032969;28;19925;-84
2023/09/09 09:01:12;;;;;;;;;;;;;;;5.32;100.00;99785.75;5015420;28;19917;-88
2023/09/09 09:03:37;;;;;;;;;;;;;;;5.34;100.00;99790.97;5032794;28;20447;-84
2023/09/09 09:06:04;;;;;;;;;;;;;;;5.40;100.00;99785.59;5032852;28;20004;-85
2023/09/09 09:08:30;;;;;;;;;;;;;;;5.34;100.00;99791.84;5031580;28;19925;-87
2023/09/09 09:10:59;;;;;;;;;;;;;;;5.30;100.00;99789.31;5033587;28;19921;-91
2023/09/09 09:13:24;;;;;;;;;;;;;;;5.31;100.00;99789.28;5033263;28;19924;-89
2023/09/09 09:15:52;;;;;;;;;;;;;;;5.34;100.00;99788.34;5015085;28;19917;-87
2023/09/09 09:18:18;;;;;;;;;;;;;;;5.36;100.00;99791.81;5034476;28;19917;-87
2023/09/09 09:20:44;;;;;;;;;;;;;;;5.35;100.00;99796.22;5048665;28;19917;-91
2023/09/09 09:23:10;;;;;;;;;;;;;;;5.35;100.00;99796.22;5013950;28;19932;-87
2023/09/09 09:25:37;;;;;;;;;;;;;;;5.40;100.00;99796.13;5032588;28;19921;-91
2023/09/09 09:28:03;;;;;;;;;;;;;;;5.37;100.00;99798.81;5032639;28;19921;-87
2023/09/09 09:30:29;;;;;;;;;;;;;;;5.39;100.00;99795.25;5032910;28;19932;-85
2023/09/09 09:32:54;;;;;;;;;;;;;;;5.42;100.00;99787.28;5034217;28;19960;-90
2023/09/09 09:35:27;;;;;;;;;;;;;;;5.54;100.00;99787.94;5014796;28;20019;-86
2023/09/09 09:37:53;;;;;;;;;;;;;;;5.44;100.00;99784.63;5013403;28;20338;-90
2023/09/09 09:40:18;;;;;;;;;;;;;;;5.55;100.00;99787.91;5032923;28;20020;-90
2023/09/09 09:42:43;;;;;;;;;;;;;;;5.56;100.00;99783.50;5014426;28;20067;-87
2023/09/09 09:45:09;;;;;;;;;;;;;;;5.49;100.00;99789.78;5032883;28;19921;-89
2023/09/09 09:47:41;;;;;;;;;;;;;;;5.58;100.00;99779.91;5048850;28;19971;-90
2023/09/09 09:50:07;;;;;;;;;;;;;;;5.58;100.00;99784.31;5014040;28;20003;-90
2023/09/09 09:52:32;;;;;;;;;;;;;;;5.58;100.00;99779.06;5031184;28;19956;-88
2023/09/09 09:55:02;;;;;;;;;;;;;;;5.57;100.00;99778.22;5032105;28;19924;-86
2023/09/09 09:57:27;;;;;;;;;;;;;;;5.58;100.00;99785.19;5014102;28;19971;-87
2023/09/09 09:59:53;;;;;;;;;;;;;;;5.56;100.00;99781.72;5032011;28;20616;-86
2023/09/09 10:02:19;;;;;;;;;;;;;;;5.55;100.00;99780.03;5034772;28;20011;-88
2023/09/09 10:04:45;;;;;;;;;;;;;;;5.60;100.00;99775.50;5038595;28;20430;-83
2023/09/09 10:07:11;;;;;;;;;;;;;;;5.57;100.00;99777.34;5038132;28;20503;-88
2023/09/09 10:09:41;;;;;;;;;;;;;;;5.52;100.00;99780.09;5038476;28;19928;-89
2023/09/09 10:12:27;;;;;;;;;;;;;;;5.58;100.00;99777.28;5038691;28;19918;-83
2023/09/09 10:14:52;;;;;;;;;;;;;;;5.57;100.00;99780.84;5019041;28;20411;-89
2023/09/09 10:17:21;;;;;;;;;;;;;;;5.57;100.00;99774.72;5038627;28;20017;-87
2023/09/09 10:19:49;;;;;;;;;;;;;;;5.52;100.00;99780.09;5038553;28;19921;-87
2023/09/09 10:22:14;;;;;;;;;;;;;;;5.55;100.00;99774.75;5020184;28;19975;-88
2023/09/09 10:24:40;;;;;;;;;;;;;;;5.60;100.00;99767.63;5038825;28;19917;-95
2023/09/09 10:27:09;;;;;;;;;;;;;;;5.54;100.00;99778.28;5039536;28;20304;-94
2023/09/09 10:29:37;;;;;;;;;;;;;;;5.62;100.00;99771.06;5021093;28;19936;-89
2023/09/09 10:32:05;;;;;;;;;;;;;;;5.54;100.00;99778.28;5038838;28;19929;-91
2023/09/09 10:34:33;;;;;;;;;;;;;;;5.63;100.00;99772.81;5038355;28;19996;-87
2023/09/09 10:36:59;;;;;;;;;;;;;;;5.55;100.00;99771.25;5038357;28;19928;-87
2023/09/09 10:39:26;;;;;;;;;;;;;;;5.57;100.00;99767.69;5037870;28;20011;-84
2023/09/09 10:41:52;;;;;;;;;;;;;;;5.61;100.00;99773.75;4942275;28;20349;-90
2023/09/09 10:44:17;;;;;;;;;;;;;;;5.55;100.00;99771.25;4958067;28;20021;-88
2023/09/09 10:46:42;;;;;;;;;;;;;;;5.59;100.00;99771.16;4957871;28;20539;-89
2023/09/09 10:49:08;;;;;;;;;;;;;;;5.58;100.00;99769.41;4957813;28;20017;-84
2023/09/09 10:51:46;;;;;;;;;;;;;;;5.59;100.00;99760.63;4958029;28;19923;-89
2023/09/09 10:54:12;;;;;;;;;;;;;;;5.63;100.00;99759.69;4957375;28;19961;-89
2023/09/09 10:56:48;;;;;;;;;;;;;;;5.65;100.00;99759.63;4957813;28;19926;-84
2023/09/09 10:59:18;;;;;;;;;;;;;;;5.65;100.00;99759.63;4962084;28;19974;-90
2023/09/09 11:01:44;;;;;;;;;;;;;;;5.75;100.00;99757.66;4957166;28;20000;-83
2023/09/09 11:04:22;;;;;;;;;;;;;;;5.77;100.00;99761.97;4957728;28;20017;-88
2023/09/09 11:07:20;;;;;;;;;;;;;;;5.75;100.00;99765.53;4957523;28;19922;-90
2023/09/09 11:09:52;;;;;;;;;;;;;;;5.78;100.00;99768.09;4926598;28;19958;-86
2023/09/09 11:12:17;;;;;;;;;;;;;;;5.71;100.00;99763.88;4957618;28;20472;-84
2023/09/09 11:15:00;;;;;;;;;;;;;;;5.78;100.00;99760.22;4953184;28;19923;-85
2023/09/09 11:17:29;;;;;;;;;;;;;;;5.72;100.00;99763.84;4954579;28;20369;-88
2023/09/09 11:19:54;;;;;;;;;;;;;;;5.74;100.00;99754.16;4954058;28;19919;-92
2023/09/09 11:22:20;;;;;;;;;;;;;;;5.68;100.00;99763.94;4953392;28;19929;-86
2023/09/09 11:24:45;;;;;;;;;;;;;;;5.70;100.00;99762.16;4961873;28;19922;-85
2023/09/09 11:27:14;;;;;;;;;;;;;;;5.73;100.00;99756.84;5017453;28;19921;-94
2023/09/09 11:29:39;;;;;;;;;;;;;;;5.79;100.00;99762.81;5034632;28;19941;-85
2023/09/09 11:32:09;;;;;;;;;;;;;;;5.78;100.00;99755.81;5035443;28;19917;-87
2023/09/09 11:34:34;;;;;;;;;;;;;;;5.78;100.00;99750.56;5016898;28;20003;-90
2023/09/09 11:37:03;;;;;;;;;;;;;;;5.83;100.00;99748.66;5034145;28;20031;-87
2023/09/09 11:39:28;;;;;;;;;;;;;;;5.75;100.00;99744.50;5034152;28;20028;-89
2023/09/09 11:41:54;;;;;;;;;;;;;;;5.70;100.00;99752.50;5034419;28;20364;-88
2023/09/09 11:44:19;;;;;;;;;;;;;;;5.71;100.00;99745.47;5034413;28;19928;-89
2023/09/09 11:46:46;;;;;;;;;;;;;;;5.61;100.00;99737.78;5034547;28;19956;-92
2023/09/09 11:49:12;;;;;;;;;;;;;;;5.60;100.00;99735.19;5035046;28;19928;-91
2023/09/09 11:51:37;;;;;;;;;;;;;;;5.64;100.00;99742.13;5034426;28;20280;-92
2023/09/09 11:54:03;;;;;;;;;;;;;;;5.60;100.00;99743.97;5033260;28;19924;-91
2023/09/09 11:56:33;;;;;;;;;;;;;;;5.66;100.00;99736.84;5034287;28;20039;-84
2023/09/09 11:59:01;;;;;;;;;;;;;;;5.68;100.00;99741.16;5033719;28;19966;-93
2023/09/09 12:01:26;;;;;;;;;;;;;;;5.66;100.00;99735.06;5033378;28;20012;-84
2023/09/09 12:04:03;;;;;;;;;;;;;;;5.67;100.00;99742.06;5032749;28;20047;-84
2023/09/09 12:06:28;;;;;;;;;;;;;;;5.65;100.00;99738.59;5033475;28;19925;-85
2023/09/09 12:08:54;;;;;;;;;;;;;;;5.69;100.00;99735.00;5032786;28;19917;-82
2023/09/09 12:11:19;;;;;;;;;;;;;;;5.64;100.00;99735.09;5033950;28;20264;-83
2023/09/09 12:13:45;;;;;;;;;;;;;;;5.69;100.00;99736.75;5033956;28;19924;-84
2023/09/09 12:16:10;;;;;;;;;;;;;;;5.67;100.00;99738.56;5033842;28;19928;-88
2023/09/09 12:18:36;;;;;;;;;;;;;;;5.71;100.00;99732.31;5033854;28;19917;-87
2023/09/09 12:21:05;;;;;;;;;;;;;;;5.70;100.00;99728.84;5015647;28;19917;-83
2023/09/09 12:23:32;;;;;;;;;;;;;;;5.75;100.00;99734.84;5032104;28;19921;-84
2023/09/09 12:26:05;;;;;;;;;;;;;;;5.61;100.00;99727.28;5015205;28;19975;-90
2023/09/09 12:28:31;;;;;;;;;;;;;;;5.67;100.00;99725.44;5016259;28;20303;-90
2023/09/09 12:30:58;;;;;;;;;;;;;;;5.69;100.00;99719.22;5033329;28;19917;-89
2023/09/09 12:33:23;;;;;;;;;;;;;;;5.64;100.00;99727.22;5033593;28;19963;-88
2023/09/09 12:35:49;;;;;;;;;;;;;;;5.70;100.00;99720.97;5047912;28;19960;-84
2023/09/09 12:38:15;;;;;;;;;;;;;;;5.72;100.00;99726.19;5014640;28;19917;-88
2023/09/09 12:40:48;;;;;;;;;;;;;;;5.74;100.00;99722.59;5033422;28;19917;-88
2023/09/09 12:43:13;;;;;;;;;;;;;;;5.71;100.00;99721.81;5033443;28;20003;-85
2023/09/09 12:46:01;;;;;;;;;;;;;;;5.67;100.00;99725.44;5015673;28;20012;-86
2023/09/09 12:48:26;;;;;;;;;;;;;;;5.68;100.00;99724.50;5023447;28;20276;-86
2023/09/09 12:50:52;;;;;;;;;;;;;;;5.78;100.00;99726.03;5032547;28;19988;-84
2023/09/09 12:53:17;;;;;;;;;;;;;;;5.76;100.00;99719.94;5031896;28;20483;-84
2023/09/09 12:55:42;;;;;;;;;;;;;;;5.75;100.00;99723.47;5032948;28;19921;-83
2023/09/09 12:58:07;;;;;;;;;;;;;;;5.72;100.00;99723.53;5033038;28;19956;-83
2023/09/09 13:00:33;;;;;;;;;;;;;;;5.71;100.00;99721.81;5015458;28;19928;-88
2023/09/09 13:02:59;;;;;;;;;;;;;;;5.77;100.00;99726.91;5032898;28;19921;-84
2023/09/09 13:05:25;;;;;;;;;;;;;;;5.76;100.00;99726.06;5032898;28;19924;-87
2023/09/09 13:07:54;;;;;;;;;;;;;;;5.74;100.00;99719.97;5031722;28;19917;-83
2023/09/09 13:10:20;;;;;;;;;;;;;;;5.73;100.00;99713.00;5030442;28;19921;-84
2023/09/09 13:12:46;;;;;;;;;;;;;;;5.81;100.00;99718.06;5032868;28;20289;-94
2023/09/09 13:15:12;;;;;;;;;;;;;;;5.74;100.00;99719.09;5031954;28;19917;-86
2023/09/09 13:17:38;;;;;;;;;;;;;;;5.75;100.00;99712.97;5033023;28;19917;-90
2023/09/09 13:20:04;;;;;;;;;;;;;;;5.73;100.00;99717.41;5033048;28;19974;-85
2023/09/09 13:22:29;;;;;;;;;;;;;;;5.70;100.00;99712.22;5031807;28;19928;-83
2023/09/09 13:24:54;;;;;;;;;;;;;;;5.85;100.00;99719.72;5032574;28;19928;-84
2023/09/09 13:27:19;;;;;;;;;;;;;;;5.66;100.00;99719.28;5014696;28;19936;-83
2023/09/09 13:29:47;;;;;;;;;;;;;;;5.80;100.00;99713.72;5032885;28;19959;-92
2023/09/09 13:32:13;;;;;;;;;;;;;;;5.79;100.00;99711.97;5047825;28;20360;-92
2023/09/09 13:34:38;;;;;;;;;;;;;;;5.79;100.00;99714.59;5032780;28;19925;-87
2023/09/09 13:37:03;;;;;;;;;;;;;;;5.81;100.00;99704.94;5012970;28;20291;-85
2023/09/09 13:39:29;;;;;;;;;;;;;;;5.73;100.00;99710.38;5031949;28;19968;-90
2023/09/09 13:41:54;;;;;;;;;;;;;;;5.81;100.00;99710.19;5033354;28;20328;-85
2023/09/09 13:44:20;;;;;;;;;;;;;;;5.73;100.00;99704.25;5032860;28;19963;-89
2023/09/09 13:46:45;;;;;;;;;;;;;;;5.78;100.00;99702.38;5032672;28;20036;-89
2023/09/09 13:49:10;;;;;;;;;;;;;;;5.75;100.00;99700.66;5032240;28;19913;-87
2023/09/09 13:51:36;;;;;;;;;;;;;;;5.80;100.00;99696.16;5032314;28;20260;-93
2023/09/09 13:54:02;;;;;;;;;;;;;;;5.78;100.00;99702.38;5030988;28;19914;-92
2023/09/09 13:56:28;;;;;;;;;;;;;;;5.75;100.00;99699.81;5014242;28;19921;-90
2023/09/09 13:58:53;;;;;;;;;;;;;;;5.79;100.00;99701.44;5034521;28;19924;-87
2023/09/09 14:01:20;;;;;;;;;;;;;;;5.76;100.00;99698.88;5031336;28;20330;-84
2023/09/09 14:03:45;;;;;;;;;;;;;;;5.75;100.00;99691.94;5032186;28;19921;-92
2023/09/09 14:06:10;;;;;;;;;;;;;;;5.77;100.00;99700.63;5031917;28;20369;-93
2023/09/09 14:08:36;;;;;;;;;;;;;;;5.75;100.00;99697.19;5030882;28;20289;-90
2023/09/09 14:11:02;;;;;;;;;;;;;;;5.82;100.00;99688.22;5031960;28;19956;-91
2023/09/09 14:13:27;;;;;;;;;;;;;;;5.73;100.00;99684.06;5033023;28;20368;-90
2023/09/09 14:15:52;;;;;;;;;;;;;;;5.78;100.00;99683.97;5032337;28;19918;-89
2023/09/09 14:18:18;;;;;;;;;;;;;;;5.77;100.00;99690.13;5032031;28;19975;-93
2023/09/09 14:20:44;;;;;;;;;;;;;;;5.83;100.00;99679.44;5031885;28;19913;-87
2023/09/09 14:23:09;;;;;;;;;;;;;;;5.80;100.00;99680.38;5030506;28;19925;-86
2023/09/09 14:25:38;;;;;;;;;;;;;;;5.76;100.00;99680.50;5031419;28;19914;-87
2023/09/09 14:28:03;;;;;;;;;;;;;;;5.82;100.00;99681.22;5032132;28;19960;-89
2023/09/09 14:30:29;;;;;;;;;;;;;;;5.77;100.00;99680.44;5014079;28;19964;-88
2023/09/09 14:32:54;;;;;;;;;;;;;;;5.74;100.00;99679.66;5032398;28;20418;-85
2023/09/09 14:35:19;;;;;;;;;;;;;;;5.72;100.00;99676.22;5032443;28;19921;-89
2023/09/09 14:37:45;;;;;;;;;;;;;;;5.66;100.00;99671.13;5046034;28;19924;-91
2023/09/09 14:40:10;;;;;;;;;;;;;;;5.63;100.00;99675.56;5031702;28;19922;-89
2023/09/09 14:42:35;;;;;;;;;;;;;;;5.69;100.00;99676.28;5014548;28;20292;-88
2023/09/09 14:45:00;;;;;;;;;;;;;;;5.60;100.00;99667.75;5042568;22;19921;-87
2023/09/09 14:47:26;;;;;;;;;;;;;;;5.65;100.00;99670.25;5041883;28;20055;-93
2023/09/09 14:49:51;;;;;;;;;;;;;;;5.63;100.00;99678.19;5026898;28;20360;-85
2023/09/09 14:52:16;;;;;;;;;;;;;;;5.56;100.00;99673.97;5042802;28;19917;-86
2023/09/09 14:54:42;;;;;;;;;;;;;;;5.55;100.00;99668.75;5044545;28;20007;-90
2023/09/09 14:57:07;;;;;;;;;;;;;;;5.53;100.00;99681.06;5042277;28;19917;-86
2023/09/09 14:59:34;;;;;;;;;;;;;;;5.49;100.00;99672.41;5042557;28;19921;-92
2023/09/09 15:01:59;;;;;;;;;;;;;;;5.48;100.00;99675.91;5044471;28;19917;-84
2023/09/09 15:04:24;;;;;;;;;;;;;;;5.49;100.00;99677.66;5025953;28;20000;-91
2023/09/09 15:06:49;;;;;;;;;;;;;;;5.55;100.00;99674.00;5025891;28;20023;-90
2023/09/09 15:09:15;;;;;;;;;;;;;;;5.58;100.00;99676.56;5042198;28;19970;-89
2023/09/09 15:11:43;;;;;;;;;;;;;;;5.55;100.00;99674.88;5043841;28;19963;-95
2023/09/09 15:14:08;;;;;;;;;;;;;;;5.69;100.00;99668.41;5028038;28;19963;-88
2023/09/09 15:16:46;;;;;;;;;;;;;;;5.58;100.00;99681.81;5043588;28;19963;-86
2023/09/09 15:19:11;;;;;;;;;;;;;;;5.63;100.00;99682.56;5043807;28;19917;-94
2023/09/09 15:21:36;;;;;;;;;;;;;;;5.56;100.00;99679.22;5027245;28;19916;-89
2023/09/09 15:24:02;;;;;;;;;;;;;;;5.63;100.00;99678.19;5041639;28;19970;-85
2023/09/09 15:26:27;;;;;;;;;;;;;;;5.59;100.00;99680.91;5043605;28;20267;-84
2023/09/09 15:28:52;;;;;;;;;;;;;;;5.50;100.00;99674.09;5044511;28;19930;-88
2023/09/09 15:31:17;;;;;;;;;;;;;;;5.59;100.00;99676.50;5043798;28;19920;-89
2023/09/09 15:33:42;;;;;;;;;;;;;;;5.56;100.00;99673.97;5043566;28;20028;-88
2023/09/09 15:36:08;;;;;;;;;;;;;;;5.55;100.00;99674.88;5026391;28;19972;-88
2023/09/09 15:38:35;;;;;;;;;;;;;;;5.60;100.00;99673.00;5041581;28;19921;-87
2023/09/09 15:41:00;;;;;;;;;;;;;;;5.57;100.00;99677.47;5047642;28;19925;-89
2023/09/09 15:43:26;;;;;;;;;;;;;;;5.56;100.00;99675.72;5043807;28;20475;-88
2023/09/09 15:45:58;;;;;;;;;;;;;;;5.45;100.00;99675.97;5043213;28;20395;-91
2023/09/09 15:48:23;;;;;;;;;;;;;;;5.52;100.00;99674.94;5041569;28;19921;-87
2023/09/09 15:50:48;;;;;;;;;;;;;;;5.59;100.00;99671.25;5042809;28;19917;-87
2023/09/09 15:53:14;;;;;;;;;;;;;;;5.51;100.00;99677.63;5042871;28;19924;-94
2023/09/09 15:55:41;;;;;;;;;;;;;;;5.54;100.00;99675.78;5025017;28;19917;-85
2023/09/09 15:58:07;;;;;;;;;;;;;;;5.58;100.00;99666.03;5043765;28;19920;-88
2023/09/09 16:00:32;;;;;;;;;;;;;;;5.61;100.00;99671.22;5042555;28;20004;-88
2023/09/09 16:02:57;;;;;;;;;;;;;;;5.52;100.00;99667.06;5041872;28;19917;-89
2023/09/09 16:05:23;;;;;;;;;;;;;;;5.49;100.00;99680.28;5041716;28;19943;-87
2023/09/09 16:07:48;;;;;;;;;;;;;;;5.40;100.00;99670.84;5040799;28;19929;-82
2023/09/09 16:10:13;;;;;;;;;;;;;;;5.40;100.00;99665.56;5025882;28;19917;-85
2023/09/09 16:12:39;;;;;;;;;;;;;;;5.49;100.00;99668.88;5043019;28;19921;-87
2023/09/09 16:15:10;;;;;;;;;;;;;;;5.49;100.00;99668.88;5025120;28;19917;-89
2023/09/09 16:17:35;;;;;;;;;;;;;;;5.46;100.00;99664.59;5023817;28;19917;-91
2023/09/09 16:20:00;;;;;;;;;;;;;;;5.53;100.00;99670.53;5041853;28;19923;-86
2023/09/09 16:22:28;;;;;;;;;;;;;;;5.51;100.00;99661.84;5042316;28;19932;-85
2023/09/09 16:24:53;;;;;;;;;;;;;;;5.45;100.00;99662.84;5024808;28;19925;-89
2023/09/09 16:27:19;;;;;;;;;;;;;;;5.45;100.00;99658.44;5042199;28;19916;-85
2023/09/09 16:29:46;;;;;;;;;;;;;;;5.41;100.00;99667.31;5042592;28;19970;-86
2023/09/09 16:32:12;;;;;;;;;;;;;;;5.45;100.00;99663.69;5022959;28;19921;-93
2023/09/09 16:34:37;;;;;;;;;;;;;;;5.43;100.00;99665.50;5041887;28;19928;-86
2023/09/09 16:37:02;;;;;;;;;;;;;;;5.44;100.00;99666.34;5043362;28;19917;-91
2023/09/09 16:39:28;;;;;;;;;;;;;;;5.43;100.00;99664.66;5037908;28;19931;-92
2023/09/09 16:41:53;;;;;;;;;;;;;;;5.39;100.00;99673.50;5043210;28;20008;-93
2023/09/09 16:44:18;;;;;;;;;;;;;;;5.38;100.00;99666.53;5041887;28;20415;-85
2023/09/09 16:46:43;;;;;;;;;;;;;;;5.39;100.00;99673.50;5042984;28;19920;-90
2023/09/09 16:49:09;;;;;;;;;;;;;;;5.42;100.00;99670.78;5042570;28;19921;-87
2023/09/09 16:51:34;;;;;;;;;;;;;;;5.38;100.00;99669.16;5041389;28;19978;-92
2023/09/09 16:54:00;;;;;;;;;;;;;;;5.33;100.00;99673.63;5023069;28;19925;-86
2023/09/09 16:56:25;;;;;;;;;;;;;;;5.37;100.00;99676.16;5041399;28;19921;-92
2023/09/09 16:58:51;;;;;;;;;;;;;;;5.41;100.00;99675.19;5041605;28;20337;-88
2023/09/09 17:01:16;;;;;;;;;;;;;;;5.33;100.00;99677.16;5041777;28;19913;-87
2023/09/09 17:03:41;;;;;;;;;;;;;;;5.50;100.00;99679.34;5024043;28;19917;-85
2023/09/09 17:06:09;;;;;;;;;;;;;;;5.38;100.00;99677.03;5024716;28;19939;-93
2023/09/09 17:08:34;;;;;;;;;;;;;;;5.38;100.00;99688.41;5040325;28;20269;-89
2023/09/09 17:11:02;;;;;;;;;;;;;;;5.46;100.00;99677.72;5024255;28;19927;-90
2023/09/09 17:13:28;;;;;;;;;;;;;;;5.41;100.00;99676.97;5040025;28;19917;-93
2023/09/09 17:15:53;;;;;;;;;;;;;;;5.43;100.00;99676.03;5041587;28;19924;-89
2023/09/09 17:18:18;;;;;;;;;;;;;;;5.35;100.00;99683.22;5041331;28;19917;-93
2023/09/09 17:20:47;;;;;;;;;;;;;;;5.36;100.00;99681.44;5024524;28;19913;-84
2023/09/09 17:23:12;;;;;;;;;;;;;;;5.38;100.00;99677.91;5038657;28;19928;-89
2023/09/09 17:25:38;;;;;;;;;;;;;;;5.41;100.00;99672.56;5041721;28;20283;-91